Time;durP1;ratioP1;P1;durP2;ratioP2;P2;SDS_P1;SDS_P2;PMS_P1;PMS_P2;Temp;Humidity;BMP_temperature;BMP_pressure;BME280_temperature;BME280_humidity;BME280_pressure;Samples;Min_cycle;Max_cycle;Signal;HPM_P1;HPM_P2
2022/07/23 00:01:34;;;;;;;3.15;2.08;;;26.80;52.10;;;;;;2461868;53;20901;-71
2022/07/23 00:04:01;;;;;;;3.37;2.25;;;26.80;51.80;;;;;;2342367;54;21012;-72
2022/07/23 00:06:27;;;;;;;2.97;2.00;;;26.70;51.60;;;;;;2474394;53;20992;-71
2022/07/23 00:08:53;;;;;;;3.87;2.55;;;26.70;51.70;;;;;;2320398;54;20940;-71
2022/07/23 00:11:21;;;;;;;5.00;2.80;;;26.60;51.80;;;;;;2341746;54;21004;-70
2022/07/23 00:13:48;;;;;;;4.05;2.50;;;26.60;51.80;;;;;;2426986;53;20929;-71
2022/07/23 00:16:14;;;;;;;4.62;2.85;;;26.50;51.80;;;;;;2339700;54;21422;-71
2022/07/23 00:18:41;;;;;;;4.72;3.08;;;26.50;51.90;;;;;;2340147;54;20936;-75
2022/07/23 00:21:08;;;;;;;4.65;2.90;;;26.40;51.90;;;;;;2404591;53;20937;-72
2022/07/23 00:23:34;;;;;;;3.78;2.40;;;26.30;51.90;;;;;;2333501;54;20983;-71
2022/07/23 00:26:00;;;;;;;3.35;2.22;;;26.30;51.90;;;;;;2340345;54;20960;-72
2022/07/23 00:28:27;;;;;;;3.42;2.25;;;26.20;52.00;;;;;;2478413;53;20920;-72
2022/07/23 00:30:54;;;;;;;3.87;2.42;;;26.20;52.10;;;;;;2338941;54;21808;-72
2022/07/23 00:33:21;;;;;;;4.07;2.55;;;26.10;52.00;;;;;;2340795;54;21026;-72
2022/07/23 00:35:47;;;;;;;4.10;2.80;;;26.10;52.30;;;;;;2340309;54;21675;-71
2022/07/23 00:38:13;;;;;;;3.65;2.33;;;26.10;52.40;;;;;;2340627;54;21817;-72
2022/07/23 00:40:40;;;;;;;5.25;2.47;;;26.00;52.40;;;;;;2341725;54;20923;-73
2022/07/23 00:43:06;;;;;;;3.87;2.67;;;26.00;52.50;;;;;;2342680;54;20965;-71
2022/07/23 00:45:35;;;;;;;4.07;2.62;;;25.90;52.50;;;;;;2327723;54;21446;-72
2022/07/23 00:48:03;;;;;;;4.25;2.90;;;25.90;52.70;;;;;;2342580;54;21072;-73
2022/07/23 00:50:29;;;;;;;4.20;2.90;;;25.80;52.80;;;;;;2343606;54;20932;-72
2022/07/23 00:52:55;;;;;;;4.80;2.95;;;25.80;53.00;;;;;;2344399;54;21018;-73
2022/07/23 00:55:23;;;;;;;5.43;2.92;;;25.70;53.00;;;;;;2346501;54;20937;-73
2022/07/23 00:57:50;;;;;;;6.00;2.78;;;25.70;53.10;;;;;;2323538;54;21399;-73
2022/07/23 01:00:16;;;;;;;3.35;2.55;;;25.70;53.20;;;;;;2324276;54;21012;-72
2022/07/23 01:02:43;;;;;;;4.07;2.75;;;25.60;53.20;;;;;;2340906;54;20997;-72
2022/07/23 01:05:09;;;;;;;4.37;2.35;;;25.50;53.30;;;;;;2344319;54;21764;-73
2022/07/23 01:07:36;;;;;;;3.95;2.83;;;25.40;53.40;;;;;;2345096;54;20928;-73
2022/07/23 01:10:03;;;;;;;3.78;2.58;;;25.40;53.40;;;;;;2473334;53;20941;-73
2022/07/23 01:12:30;;;;;;;4.35;2.72;;;25.40;53.60;;;;;;2321709;54;20921;-71
2022/07/23 01:15:00;;;;;;;3.97;2.83;;;25.30;53.60;;;;;;2494266;53;21003;-72
2022/07/23 01:17:26;;;;;;;3.70;2.22;;;25.30;53.80;;;;;;2327290;54;20937;-74
2022/07/23 01:23:33;;;;;;;4.25;2.70;;;25.20;54.20;;;;;;2342730;54;21772;-75
2022/07/23 01:26:20;;;;;;;3.92;2.92;;;25.10;53.70;;;;;;2343258;54;20999;-73
2022/07/23 01:28:47;;;;;;;4.57;3.10;;;25.10;54.50;;;;;;2327458;54;21509;-73
2022/07/23 01:31:14;;;;;;;4.87;3.20;;;25.10;54.00;;;;;;2589612;53;20996;-73
2022/07/23 01:33:40;;;;;;;4.07;2.87;;;25.00;54.00;;;;;;2418569;53;20960;-72
2022/07/23 01:36:09;;;;;;;3.58;2.58;;;25.00;54.00;;;;;;2559578;53;21012;-73
2022/07/23 01:38:36;;;;;;;3.53;2.37;;;25.00;54.20;;;;;;2342312;54;20925;-74
2022/07/23 01:41:02;;;;;;;3.60;2.83;;;24.90;54.00;;;;;;2334400;54;20949;-74
2022/07/23 01:43:30;;;;;;;3.70;2.75;;;24.90;54.20;;;;;;2332135;54;20920;-72
2022/07/23 01:45:56;;;;;;;5.18;2.50;;;24.90;54.30;;;;;;2315061;53;20955;-72
2022/07/23 01:48:26;;;;;;;3.37;2.30;;;24.80;54.20;;;;;;2316778;53;20957;-72
2022/07/23 01:50:52;;;;;;;3.80;2.28;;;24.80;54.20;;;;;;2313830;54;20945;-73
2022/07/23 01:53:19;;;;;;;3.75;2.20;;;24.80;54.30;;;;;;2339379;55;20979;-75
2022/07/23 01:55:45;;;;;;;3.90;2.67;;;24.80;54.40;;;;;;2548900;53;20917;-72
2022/07/23 01:58:48;;;;;;;3.35;2.20;;;24.80;54.40;;;;;;2343902;54;20952;-72
2022/07/23 02:01:16;;;;;;;3.30;2.28;;;24.80;54.70;;;;;;2342891;54;20999;-74
2022/07/23 02:03:57;;;;;;;3.70;2.37;;;24.80;54.30;;;;;;2343179;54;20992;-72
2022/07/23 02:06:23;;;;;;;3.50;2.12;;;24.80;54.60;;;;;;2324241;54;20980;-73
2022/07/23 02:08:49;;;;;;;3.60;2.60;;;24.70;54.30;;;;;;2332790;54;21488;-73
2022/07/23 02:11:15;;;;;;;3.50;2.37;;;24.70;54.40;;;;;;2335895;54;20993;-72
2022/07/23 02:13:42;;;;;;;3.42;2.20;;;24.70;54.40;;;;;;2590445;53;21001;-73
2022/07/23 02:16:08;;;;;;;4.00;2.22;;;24.70;54.50;;;;;;2429069;53;20988;-73
2022/07/23 02:18:36;;;;;;;3.97;2.50;;;24.70;54.50;;;;;;2343393;54;21019;-72
2022/07/23 02:21:09;;;;;;;3.58;2.35;;;24.60;54.60;;;;;;2344320;54;21443;-73
2022/07/23 02:23:44;;;;;;;3.10;2.08;;;24.60;54.80;;;;;;2339990;54;21000;-73
2022/07/23 02:26:10;;;;;;;5.75;2.35;;;24.60;54.70;;;;;;2318267;55;21760;-73
2022/07/23 02:28:37;;;;;;;3.78;2.22;;;24.60;54.50;;;;;;2315218;55;20943;-73
2022/07/23 02:31:04;;;;;;;3.42;2.17;;;24.60;54.50;;;;;;2315137;55;20908;-73
2022/07/23 02:33:30;;;;;;;3.55;2.20;;;24.60;54.50;;;;;;2315271;55;21835;-73
2022/07/23 02:35:56;;;;;;;3.37;2.17;;;24.50;54.40;;;;;;2306664;55;21027;-73
2022/07/23 02:38:23;;;;;;;3.22;2.05;;;24.50;54.40;;;;;;2311129;54;20962;-73
2022/07/23 02:40:50;;;;;;;4.25;2.70;;;24.50;54.50;;;;;;2311451;54;21561;-73
2022/07/23 02:43:17;;;;;;;4.60;3.10;;;24.40;54.60;;;;;;2316830;55;20983;-75
2022/07/23 02:45:43;;;;;;;3.45;2.33;;;24.40;54.80;;;;;;2319237;54;21381;-73
2022/07/23 02:48:12;;;;;;;3.97;2.42;;;24.40;54.80;;;;;;2409075;53;20959;-74
2022/07/23 02:50:38;;;;;;;3.50;2.28;;;24.40;54.80;;;;;;2314472;55;21922;-72
2022/07/23 02:53:32;;;;;;;3.28;2.20;;;24.30;54.70;;;;;;2297961;54;21009;-73
2022/07/23 02:56:07;;;;;;;3.22;2.08;;;24.30;55.00;;;;;;2339557;54;20949;-72
2022/07/23 02:58:42;;;;;;;4.05;2.40;;;24.30;54.80;;;;;;2325333;54;21008;-73
2022/07/23 03:01:10;;;;;;;3.67;2.37;;;24.30;54.90;;;;;;2343708;54;20992;-73
2022/07/23 03:03:40;;;;;;;3.60;2.50;;;24.20;54.80;;;;;;2330613;55;21008;-73
2022/07/23 03:06:27;;;;;;;3.45;2.33;;;24.20;54.90;;;;;;2340086;53;20982;-74
2022/07/23 03:08:54;;;;;;;3.72;2.00;;;24.20;55.50;;;;;;2517568;53;20943;-74
2022/07/23 03:11:21;;;;;;;3.20;2.12;;;24.10;55.00;;;;;;2538277;53;21029;-74
2022/07/23 03:13:48;;;;;;;3.25;2.17;;;24.10;55.00;;;;;;2314976;53;21686;-72
2022/07/23 03:16:35;;;;;;;4.50;2.80;;;24.10;55.10;;;;;;2362526;53;21008;-72
2022/07/23 03:19:04;;;;;;;4.68;2.60;;;24.10;55.70;;;;;;2306210;54;21004;-73
2022/07/23 03:21:34;;;;;;;3.87;2.70;;;24.00;55.30;;;;;;2542332;54;20996;-73
2022/07/23 03:24:01;;;;;;;4.22;2.83;;;24.00;55.40;;;;;;2361063;53;21754;-73
2022/07/23 03:26:29;;;;;;;3.30;2.17;;;24.00;55.40;;;;;;2557917;53;20939;-73
2022/07/23 03:28:57;;;;;;;3.70;2.25;;;24.00;55.40;;;;;;2312713;54;21026;-73
2022/07/23 03:31:23;;;;;;;3.40;2.33;;;24.00;55.40;;;;;;2346256;54;20990;-74
2022/07/23 03:33:50;;;;;;;3.50;2.25;;;24.00;55.40;;;;;;2335006;55;22030;-72
2022/07/23 03:36:37;;;;;;;4.05;2.62;;;23.90;55.40;;;;;;2461469;53;21011;-74
2022/07/23 03:39:06;;;;;;;4.28;2.30;;;24.00;56.10;;;;;;2333204;54;21390;-73
2022/07/23 03:41:32;;;;;;;4.07;2.83;;;23.90;55.60;;;;;;2389239;53;20977;-73
2022/07/23 03:44:07;;;;;;;3.70;2.75;;;23.90;55.70;;;;;;2339072;54;21499;-73
2022/07/23 03:46:34;;;;;;;3.58;2.60;;;23.90;56.00;;;;;;2557872;53;21081;-75
2022/07/23 03:49:01;;;;;;;4.70;2.62;;;23.90;55.90;;;;;;2340657;54;20937;-72
2022/07/23 03:51:28;;;;;;;3.78;2.70;;;23.90;56.00;;;;;;2479444;53;21564;-74
2022/07/23 03:53:58;;;;;;;3.60;2.47;;;23.90;56.00;;;;;;2344098;54;20917;-73
2022/07/23 03:56:25;;;;;;;4.05;2.30;;;23.90;56.00;;;;;;2381359;53;20979;-72
2022/07/23 03:58:53;;;;;;;4.15;2.55;;;23.80;55.90;;;;;;2344841;54;21072;-73
2022/07/23 04:01:25;;;;;;;3.42;2.20;;;23.80;55.90;;;;;;2379448;53;20948;-74
2022/07/23 04:03:55;;;;;;;4.80;2.42;;;23.80;56.10;;;;;;2316398;53;21006;-72
2022/07/23 04:06:21;;;;;;;3.42;2.15;;;23.80;56.00;;;;;;2358964;54;21516;-73
2022/07/23 04:08:49;;;;;;;3.10;2.05;;;23.80;56.00;;;;;;2318044;54;20963;-72
2022/07/23 04:11:16;;;;;;;3.85;2.35;;;23.80;56.10;;;;;;2321956;55;21540;-72
2022/07/23 04:13:48;;;;;;;4.20;2.37;;;23.80;56.20;;;;;;2336957;55;20948;-73
2022/07/23 04:16:24;;;;;;;3.60;2.65;;;23.80;56.40;;;;;;2463296;53;21016;-73
2022/07/23 04:18:50;;;;;;;4.45;2.60;;;23.80;56.60;;;;;;2339778;55;21777;-73
2022/07/23 04:21:17;;;;;;;5.57;3.35;;;23.80;56.30;;;;;;2336372;55;20921;-73
2022/07/23 04:23:44;;;;;;;4.78;3.15;;;23.80;56.40;;;;;;2502296;53;20939;-74
2022/07/23 04:26:10;;;;;;;5.15;3.12;;;23.80;56.50;;;;;;2330052;54;21709;-72
2022/07/23 04:28:40;;;;;;;4.65;2.80;;;23.80;56.50;;;;;;2337056;54;21154;-73
2022/07/23 04:31:08;;;;;;;3.58;2.40;;;23.80;56.60;;;;;;2514589;53;20985;-74
2022/07/23 04:33:34;;;;;;;4.22;2.83;;;23.80;56.60;;;;;;2322536;54;20936;-73
2022/07/23 04:36:01;;;;;;;4.07;2.70;;;23.80;56.60;;;;;;2590808;53;21782;-74
2022/07/23 04:38:28;;;;;;;3.45;2.25;;;23.90;57.30;;;;;;2337360;54;20941;-73
2022/07/23 04:40:54;;;;;;;3.37;2.33;;;23.90;56.80;;;;;;2348547;53;20920;-73
2022/07/23 04:43:23;;;;;;;4.05;2.50;;;23.90;56.80;;;;;;2324162;54;20969;-73
2022/07/23 04:45:50;;;;;;;4.57;2.85;;;23.90;57.00;;;;;;2352784;53;21007;-73
2022/07/23 04:48:21;;;;;;;3.92;2.83;;;23.90;57.00;;;;;;2324358;54;21009;-73
2022/07/23 04:50:49;;;;;;;4.65;2.72;;;23.90;57.20;;;;;;2513686;53;21039;-72
2022/07/23 04:53:22;;;;;;;3.25;2.10;;;23.90;56.90;;;;;;2343840;54;21496;-74
2022/07/23 04:55:50;;;;;;;3.85;2.70;;;23.90;57.00;;;;;;2590738;53;20933;-73
2022/07/23 04:58:16;;;;;;;4.62;2.87;;;23.90;56.90;;;;;;2344582;54;20993;-73
2022/07/23 05:00:43;;;;;;;3.92;2.50;;;23.90;57.00;;;;;;2344526;54;20917;-73
2022/07/23 05:03:09;;;;;;;3.45;2.00;;;23.90;57.00;;;;;;2344506;54;21445;-73
2022/07/23 05:05:36;;;;;;;3.90;2.45;;;24.00;57.00;;;;;;2344510;54;20928;-73
2022/07/23 05:08:08;;;;;;;3.42;2.33;;;24.00;57.70;;;;;;2591265;53;20908;-73
2022/07/23 05:10:35;;;;;;;3.33;2.42;;;24.00;57.20;;;;;;2404498;53;21457;-73
2022/07/23 05:13:03;;;;;;;4.15;2.53;;;24.10;57.20;;;;;;2344665;54;20948;-73
2022/07/23 05:15:47;;;;;;;5.70;2.83;;;24.10;57.30;;;;;;2409293;53;21005;-75
2022/07/23 05:18:15;;;;;;;3.42;2.37;;;24.10;57.60;;;;;;2328269;54;20969;-73
2022/07/23 05:20:44;;;;;;;4.10;2.60;;;24.10;57.30;;;;;;2327374;53;20944;-73
2022/07/23 05:23:11;;;;;;;3.75;2.42;;;24.20;57.50;;;;;;2544938;53;21413;-73
2022/07/23 05:25:40;;;;;;;4.85;2.80;;;24.20;57.40;;;;;;2544500;53;20991;-73
2022/07/23 05:28:09;;;;;;;4.12;2.65;;;24.30;57.50;;;;;;2328635;54;21007;-73
2022/07/23 05:30:36;;;;;;;4.18;2.65;;;24.30;57.50;;;;;;2512003;53;20947;-73
2022/07/23 05:33:02;;;;;;;3.95;2.33;;;24.30;57.40;;;;;;2341853;54;20972;-73
2022/07/23 05:35:29;;;;;;;3.42;2.15;;;24.30;57.40;;;;;;2585490;52;20929;-73
2022/07/23 05:37:56;;;;;;;4.93;2.72;;;24.40;57.40;;;;;;2344046;54;20937;-73
2022/07/23 05:40:24;;;;;;;3.70;2.50;;;24.40;57.50;;;;;;2516745;52;20980;-73
2022/07/23 05:42:50;;;;;;;5.50;2.80;;;24.40;57.50;;;;;;2336992;54;20972;-74
2022/07/23 05:45:17;;;;;;;4.35;2.78;;;24.50;57.60;;;;;;2423585;52;20984;-73
2022/07/23 05:47:44;;;;;;;4.03;2.85;;;24.50;57.70;;;;;;2342411;53;20940;-73
2022/07/23 05:50:13;;;;;;;4.05;2.60;;;24.60;57.70;;;;;;2585887;52;21475;-73
2022/07/23 05:52:43;;;;;;;3.30;2.20;;;24.60;57.70;;;;;;2381428;53;21888;-73
2022/07/23 05:55:10;;;;;;;3.87;2.40;;;24.60;57.60;;;;;;2388212;53;21818;-73
2022/07/23 05:57:37;;;;;;;3.75;2.20;;;24.60;57.50;;;;;;2298051;55;21014;-72
2022/07/23 06:00:05;;;;;;;3.78;2.67;;;24.70;57.70;;;;;;2556556;53;21085;-72
2022/07/23 06:02:34;;;;;;;3.35;2.33;;;24.70;57.70;;;;;;2313999;53;20967;-72
2022/07/23 06:05:04;;;;;;;4.12;2.90;;;24.80;57.80;;;;;;2326363;54;21882;-72
2022/07/23 06:07:31;;;;;;;3.90;2.60;;;24.80;57.80;;;;;;2553457;53;20940;-73
2022/07/23 06:09:57;;;;;;;4.32;2.90;;;24.80;57.80;;;;;;2303845;54;20932;-73
2022/07/23 06:12:25;;;;;;;4.87;2.45;;;24.90;57.80;;;;;;2562491;53;21388;-73
2022/07/23 06:14:52;;;;;;;4.15;3.08;;;24.80;57.70;;;;;;2366757;53;20925;-73
2022/07/23 06:17:19;;;;;;;4.05;2.67;;;24.90;57.80;;;;;;2325057;54;20984;-72
2022/07/23 06:19:45;;;;;;;5.82;2.95;;;24.90;57.80;;;;;;2358581;54;20944;-73
2022/07/23 06:22:12;;;;;;;3.70;2.60;;;25.00;57.80;;;;;;2316007;55;20986;-72
2022/07/23 06:24:38;;;;;;;5.03;2.53;;;25.10;57.70;;;;;;2324061;53;21008;-72
2022/07/23 06:27:50;;;;;;;3.50;2.50;;;25.10;57.70;;;;;;2313701;53;21610;-74
2022/07/23 06:30:18;;;;;;;4.00;2.43;;;25.10;57.80;;;;;;2305648;54;20931;-74
2022/07/23 06:32:45;;;;;;;4.40;2.85;;;25.10;57.50;;;;;;2559613;53;20963;-73
2022/07/23 06:35:14;;;;;;;3.58;2.28;;;25.20;57.50;;;;;;2435862;53;21010;-73
2022/07/23 06:37:50;;;;;;;3.72;2.40;;;25.20;57.50;;;;;;2316490;54;21072;-73
2022/07/23 06:40:17;;;;;;;4.62;2.70;;;25.30;57.50;;;;;;2306369;54;20987;-72
2022/07/23 06:42:57;;;;;;;3.35;2.20;;;25.30;57.40;;;;;;2451617;53;20944;-73
2022/07/23 06:45:23;;;;;;;3.55;2.58;;;25.30;57.40;;;;;;2534270;53;21489;-72
2022/07/23 06:47:50;;;;;;;4.78;3.20;;;25.40;57.30;;;;;;2573804;53;20980;-73
2022/07/23 06:51:02;;;;;;;4.15;2.95;;;25.40;57.50;;;;;;2345594;53;21011;-74
2022/07/23 06:53:29;;;;;;;3.58;2.70;;;25.40;57.60;;;;;;2320194;54;21579;-73
2022/07/23 06:55:56;;;;;;;4.55;3.33;;;25.50;57.40;;;;;;2402624;53;20964;-73
2022/07/23 06:58:22;;;;;;;4.32;3.08;;;25.50;58.10;;;;;;2337455;54;21735;-72
2022/07/23 07:00:49;;;;;;;4.87;3.12;;;25.50;57.50;;;;;;2337283;54;20959;-73
2022/07/23 07:03:27;;;;;;;5.60;3.12;;;25.60;57.70;;;;;;2342790;54;20936;-72
2022/07/23 07:05:53;;;;;;;3.80;2.70;;;25.60;57.90;;;;;;2326604;53;21020;-74
2022/07/23 07:08:20;;;;;;;3.80;2.65;;;25.70;57.70;;;;;;2357824;54;20985;-73
2022/07/23 07:10:47;;;;;;;4.87;2.95;;;25.70;57.70;;;;;;2336896;54;21777;-74
2022/07/23 07:13:15;;;;;;;3.62;2.58;;;25.70;57.70;;;;;;2345235;53;21014;-74
2022/07/23 07:15:42;;;;;;;3.62;2.60;;;25.80;57.80;;;;;;2335923;55;21733;-74
2022/07/23 07:18:23;;;;;;;3.97;2.70;;;25.90;57.90;;;;;;2343129;54;20948;-73
2022/07/23 07:20:50;;;;;;;4.22;2.90;;;25.90;58.00;;;;;;2453519;52;21000;-75
2022/07/23 07:23:16;;;;;;;3.83;2.78;;;26.00;57.80;;;;;;2343667;54;21084;-74
2022/07/23 07:25:42;;;;;;;3.87;2.65;;;26.00;57.70;;;;;;2344041;54;20996;-74
2022/07/23 07:28:42;;;;;;;4.32;3.28;;;26.10;57.70;;;;;;2342499;54;20921;-74
2022/07/23 07:31:09;;;;;;;3.92;2.97;;;26.10;58.10;;;;;;2590283;52;21470;-74
2022/07/23 07:33:45;;;;;;;5.85;3.17;;;26.20;57.70;;;;;;2344143;54;20933;-74
2022/07/23 07:36:13;;;;;;;4.37;2.80;;;26.30;57.90;;;;;;2377771;53;20959;-74
2022/07/23 07:38:43;;;;;;;4.30;2.75;;;26.30;57.70;;;;;;2339682;54;20921;-75
2022/07/23 07:41:10;;;;;;;4.10;2.97;;;26.30;57.50;;;;;;2425588;52;20919;-75
2022/07/23 07:43:37;;;;;;;4.10;3.00;;;26.40;57.50;;;;;;2339184;55;20947;-74
2022/07/23 07:46:04;;;;;;;3.90;2.95;;;26.40;57.40;;;;;;2590970;52;21426;-73
2022/07/23 07:48:30;;;;;;;4.70;2.83;;;26.50;57.50;;;;;;2341596;53;21004;-74
2022/07/23 07:51:00;;;;;;;4.00;2.95;;;26.50;57.50;;;;;;2585039;52;20917;-73
2022/07/23 07:53:26;;;;;;;4.87;2.72;;;26.60;57.40;;;;;;2342785;54;20904;-74
2022/07/23 07:55:53;;;;;;;3.47;2.53;;;26.60;57.30;;;;;;2349847;53;20925;-75
2022/07/23 07:58:19;;;;;;;4.07;3.10;;;26.70;57.20;;;;;;2342168;53;20960;-74
2022/07/23 08:00:46;;;;;;;5.15;3.12;;;26.80;57.30;;;;;;2429357;52;20976;-74
2022/07/23 08:03:13;;;;;;;4.62;3.03;;;26.80;57.40;;;;;;2335935;54;20996;-76
2022/07/23 08:05:39;;;;;;;10.38;2.95;;;26.90;57.40;;;;;;2347581;53;20929;-74
2022/07/23 08:08:09;;;;;;;4.97;2.87;;;27.00;57.40;;;;;;2331980;54;20937;-73
2022/07/23 08:10:35;;;;;;;4.53;3.03;;;27.00;57.20;;;;;;2314014;54;20948;-73
2022/07/23 08:13:01;;;;;;;4.93;3.55;;;27.10;57.20;;;;;;2321215;54;21002;-74
2022/07/23 08:15:29;;;;;;;4.55;3.00;;;27.10;57.00;;;;;;2400713;53;21405;-73
2022/07/23 08:17:55;;;;;;;4.87;3.50;;;27.20;56.80;;;;;;2316413;53;21455;-73
2022/07/23 08:20:24;;;;;;;4.50;2.85;;;27.30;56.60;;;;;;2332063;54;20980;-72
2022/07/23 08:22:58;;;;;;;4.00;2.90;;;27.30;56.20;;;;;;2317753;54;20939;-72
2022/07/23 08:25:26;;;;;;;4.45;3.25;;;27.40;55.70;;;;;;2311218;55;21976;-73
2022/07/23 08:27:53;;;;;;;4.32;2.87;;;27.40;55.50;;;;;;2309697;55;20950;-74
2022/07/23 08:30:20;;;;;;;4.65;3.00;;;27.50;55.20;;;;;;2290692;55;20968;-75
2022/07/23 08:33:29;;;;;;;4.05;2.72;;;27.50;55.00;;;;;;2309363;53;21062;-74
2022/07/23 08:36:06;;;;;;;3.95;2.62;;;27.60;54.40;;;;;;2377354;53;21519;-73
2022/07/23 08:38:32;;;;;;;3.40;2.42;;;27.60;54.10;;;;;;2310539;53;20997;-74
2022/07/23 08:44:27;;;;;;;5.10;3.10;;;27.70;53.60;;;;;;2309981;55;21474;-75
2022/07/23 08:46:54;;;;;;;4.03;2.65;;;27.70;53.90;;;;;;2309058;55;20934;-74
2022/07/23 08:49:20;;;;;;;3.67;2.58;;;27.80;54.00;;;;;;2309676;55;21010;-73
2022/07/23 08:51:51;;;;;;;4.70;2.83;;;27.80;53.90;;;;;;2309923;55;21005;-73
2022/07/23 08:54:18;;;;;;;4.25;2.90;;;27.80;53.90;;;;;;2547048;53;20987;-74
2022/07/23 08:56:44;;;;;;;4.55;3.17;;;27.80;53.70;;;;;;2330157;53;20962;-73
2022/07/23 08:59:13;;;;;;;4.37;3.12;;;27.90;53.60;;;;;;2311959;54;20965;-73
2022/07/23 09:01:39;;;;;;;4.15;3.08;;;27.90;53.60;;;;;;2301653;54;20982;-73
2022/07/23 09:04:07;;;;;;;3.87;3.03;;;28.00;53.70;;;;;;2312312;54;20933;-74
2022/07/23 09:06:33;;;;;;;3.62;2.72;;;28.00;53.70;;;;;;2309594;55;20929;-74
2022/07/23 09:09:00;;;;;;;3.92;2.90;;;28.10;53.70;;;;;;2302349;54;20999;-74
2022/07/23 09:11:26;;;;;;;3.78;2.70;;;28.10;53.60;;;;;;2306954;54;21039;-74
2022/07/23 09:14:37;;;;;;;5.95;3.05;;;28.10;53.40;;;;;;2315834;54;20958;-75
2022/07/23 09:17:13;;;;;;;6.10;2.97;;;28.20;53.00;;;;;;2543011;53;22081;-73
2022/07/23 09:19:40;;;;;;;3.87;2.67;;;28.30;52.80;;;;;;2310677;55;21155;-73
2022/07/23 09:22:23;;;;;;;5.07;3.35;;;28.30;53.00;;;;;;2306644;53;20975;-73
2022/07/23 09:28:24;;;;;;;5.50;3.47;;;28.40;53.20;;;;;;2308656;55;21098;-73
2022/07/23 09:30:51;;;;;;;4.00;2.67;;;28.50;53.10;;;;;;2351860;53;21014;-75
2022/07/23 09:33:20;;;;;;;4.45;2.42;;;28.50;53.00;;;;;;2307145;55;20935;-74
2022/07/23 09:35:51;;;;;;;3.60;2.60;;;28.60;52.80;;;;;;2329811;55;20939;-73
2022/07/23 09:38:20;;;;;;;3.57;2.73;;;28.60;52.60;;;;;;2330485;55;21701;-74
2022/07/23 09:40:46;;;;;;;3.62;2.55;;;28.60;52.80;;;;;;2328493;55;21083;-74
2022/07/23 09:43:16;;;;;;;3.85;2.62;;;28.70;53.00;;;;;;2327485;55;21060;-73
2022/07/23 09:45:42;;;;;;;4.05;2.75;;;28.70;52.80;;;;;;2310458;55;20933;-72
2022/07/23 09:48:16;;;;;;;4.30;3.12;;;28.80;52.80;;;;;;2393541;54;21412;-73
2022/07/23 09:51:06;;;;;;;5.00;3.20;;;28.90;52.70;;;;;;2321519;55;20921;-73
2022/07/23 09:53:38;;;;;;;4.20;3.10;;;28.90;52.20;;;;;;2334568;55;21446;-74
2022/07/23 09:56:05;;;;;;;4.82;3.25;;;29.00;52.50;;;;;;2549808;53;21769;-73
2022/07/23 09:58:43;;;;;;;4.35;3.25;;;29.00;52.40;;;;;;2333892;57;21934;-72
2022/07/23 10:01:10;;;;;;;4.00;2.83;;;29.10;51.90;;;;;;2338004;57;21969;-73
2022/07/23 10:03:36;;;;;;;4.37;2.97;;;29.20;51.90;;;;;;2314266;55;20980;-73
2022/07/23 10:06:02;;;;;;;3.65;2.58;;;29.20;51.70;;;;;;2556568;53;22165;-75
2022/07/23 10:08:29;;;;;;;4.12;3.05;;;29.20;51.80;;;;;;2318801;55;20924;-75
2022/07/23 10:10:55;;;;;;;4.07;2.50;;;29.30;51.60;;;;;;2339030;55;20945;-73
2022/07/23 10:13:48;;;;;;;5.47;2.80;;;29.30;51.60;;;;;;2338047;55;20948;-73
2022/07/23 10:16:14;;;;;;;;;;;29.30;51.60;;;;;;2327963;54;20947;-74
2022/07/23 10:18:40;;;;;;;3.12;1.95;;;29.40;51.50;;;;;;2414293;53;20123;-73
2022/07/23 10:21:54;;;;;;;3.55;2.30;;;29.50;51.50;;;;;;2315078;53;20991;-73
2022/07/23 10:27:46;;;;;;;3.97;2.40;;;29.50;50.60;;;;;;2345885;53;20958;-73
2022/07/23 10:31:02;;;;;;;3.30;2.20;;;29.60;50.70;;;;;;2358531;54;22076;-73
2022/07/23 10:34:09;;;;;;;4.03;2.50;;;29.60;50.30;;;;;;2338550;53;21589;-74
2022/07/23 10:37:35;;;;;;;3.78;2.62;;;29.70;49.90;;;;;;2320226;54;21116;-74
2022/07/23 10:40:21;;;;;;;3.75;2.62;;;29.70;49.70;;;;;;2373582;53;21010;-73
2022/07/23 10:42:47;;;;;;;3.80;2.50;;;29.70;49.60;;;;;;2405422;53;21775;-74
2022/07/23 10:45:33;;;;;;;3.45;2.40;;;29.70;50.10;;;;;;2337181;54;20973;-74
2022/07/23 10:48:19;;;;;;;3.85;2.62;;;29.80;49.70;;;;;;2305278;54;20956;-73
2022/07/23 10:51:39;;;;;;;4.07;2.50;;;29.80;49.50;;;;;;2360185;53;21788;-73
2022/07/23 10:54:22;;;;;;;4.37;2.70;;;29.90;49.50;;;;;;2328003;53;20984;-74
2022/07/23 10:57:06;;;;;;;4.75;3.15;;;29.90;49.80;;;;;;2390265;54;21997;-73
2022/07/23 11:00:09;;;;;;;4.62;2.75;;;29.90;49.50;;;;;;2295603;53;21059;-73
2022/07/23 11:02:35;;;;;;;;;;;30.00;49.20;;;;;;2320287;53;21011;-73
2022/07/23 11:05:07;;;;;;;3.58;2.50;;;30.00;49.60;;;;;;2478210;53;20382;-72
2022/07/23 11:07:34;;;;;;;3.83;2.55;;;30.10;49.40;;;;;;2398588;53;20947;-73
2022/07/23 11:10:04;;;;;;;3.92;3.05;;;30.10;49.60;;;;;;2315523;54;20931;-74
2022/07/23 11:12:40;;;;;;;3.92;2.75;;;30.10;49.30;;;;;;2315959;54;20943;-73
2022/07/23 11:15:13;;;;;;;4.25;3.17;;;30.20;49.00;;;;;;2317929;54;20947;-72
2022/07/23 11:18:01;;;;;;;3.90;2.72;;;30.20;49.20;;;;;;2398748;53;21831;-73
2022/07/23 11:20:28;;;;;;;3.90;2.80;;;30.30;48.90;;;;;;2290879;54;21004;-73
2022/07/23 11:26:51;;;;;;;4.45;2.90;;;30.40;48.70;;;;;;2313808;54;21022;-74
2022/07/23 11:32:58;;;;;;;4.07;2.75;;;30.50;48.90;;;;;;2335276;55;21899;-73
2022/07/23 11:35:28;;;;;;;3.75;2.40;;;30.60;48.50;;;;;;2403767;53;21662;-73
2022/07/23 11:38:02;;;;;;;3.85;2.40;;;30.70;48.70;;;;;;2311792;54;21035;-73
2022/07/23 11:40:35;;;;;;;4.22;2.62;;;30.70;48.60;;;;;;2313579;53;20999;-72
2022/07/23 11:43:06;;;;;;;4.05;2.85;;;30.70;48.40;;;;;;2322376;53;21084;-73
2022/07/23 11:46:20;;;;;;;4.25;2.95;;;30.80;48.50;;;;;;2326072;54;21676;-73
2022/07/23 11:48:47;;;;;;;4.10;2.70;;;30.90;48.10;;;;;;2315413;53;20930;-73
2022/07/23 11:51:24;;;;;;;3.47;2.60;;;30.90;48.40;;;;;;2386839;53;20963;-72
2022/07/23 11:53:51;;;;;;;3.60;2.60;;;31.00;47.80;;;;;;2520587;53;20963;-73
2022/07/23 11:56:18;;;;;;;4.40;3.03;;;31.00;48.10;;;;;;2312505;55;21940;-73
2022/07/23 11:58:54;;;;;;;5.82;3.50;;;31.00;47.90;;;;;;2310228;55;20929;-73
2022/07/23 12:01:21;;;;;;;4.22;3.28;;;31.10;47.40;;;;;;2312140;54;20935;-73
2022/07/23 12:03:56;;;;;;;4.68;3.50;;;31.10;47.50;;;;;;2523767;54;21003;-72
2022/07/23 12:06:23;;;;;;;4.25;3.35;;;31.20;47.30;;;;;;2333104;55;20941;-73
2022/07/23 12:08:49;;;;;;;4.55;3.55;;;31.20;47.40;;;;;;2337307;55;21992;-74
2022/07/23 12:11:15;;;;;;;5.05;3.80;;;31.20;47.30;;;;;;2570466;53;21535;-73
2022/07/23 12:13:42;;;;;;;4.37;3.17;;;31.30;47.30;;;;;;2328846;55;21051;-73
2022/07/23 12:16:23;;;;;;;4.22;3.30;;;31.30;47.00;;;;;;2314604;54;21034;-73
2022/07/23 12:18:50;;;;;;;7.18;6.25;;;31.30;46.80;;;;;;2311404;55;21883;-73
2022/07/23 12:21:16;;;;;;;6.57;4.22;;;31.30;46.90;;;;;;2313294;54;20923;-73
2022/07/23 12:23:46;;;;;;;5.62;4.32;;;31.40;47.00;;;;;;2319765;54;20946;-72
2022/07/23 12:26:15;;;;;;;;;;;31.40;47.00;;;;;;2381012;53;20909;-72
2022/07/23 12:28:43;;;;;;;3.80;2.83;;;31.50;46.90;;;;;;2325633;54;20072;-73
2022/07/23 12:31:12;;;;;;;4.03;2.87;;;31.50;46.90;;;;;;2325559;55;21033;-72
2022/07/23 12:33:50;;;;;;;4.70;3.20;;;31.50;46.70;;;;;;2319987;54;21448;-73
2022/07/23 12:36:17;;;;;;;5.18;3.15;;;31.50;47.00;;;;;;2330733;53;20987;-71
2022/07/23 12:38:47;;;;;;;3.80;3.05;;;31.50;46.60;;;;;;2316562;54;21721;-72
2022/07/23 12:41:13;;;;;;;5.45;3.75;;;31.60;46.30;;;;;;2317185;53;20930;-73
2022/07/23 12:43:41;;;;;;;4.07;3.12;;;31.60;46.20;;;;;;2316866;54;21455;-72
2022/07/23 12:46:26;;;;;;;4.18;3.30;;;31.60;46.10;;;;;;2315532;54;21002;-71
2022/07/23 12:48:53;;;;;;;4.12;3.03;;;31.70;46.10;;;;;;2354498;53;20939;-72
2022/07/23 12:51:22;;;;;;;3.85;2.85;;;31.70;46.50;;;;;;2315056;54;20958;-71
2022/07/23 12:53:53;;;;;;;4.78;3.12;;;31.70;46.40;;;;;;2404869;53;21014;-71
2022/07/23 12:56:27;;;;;;;4.18;2.90;;;31.70;46.30;;;;;;2317024;54;20991;-72
2022/07/23 12:59:04;;;;;;;4.10;3.15;;;31.80;46.10;;;;;;2315198;54;21549;-72
2022/07/23 13:01:36;;;;;;;4.75;3.40;;;31.90;46.50;;;;;;2314579;54;20982;-72
2022/07/23 13:04:13;;;;;;;4.15;3.00;;;31.90;46.40;;;;;;2315232;54;20927;-72
2022/07/23 13:07:01;;;;;;;5.28;3.75;;;32.00;46.20;;;;;;2315616;54;20907;-74
2022/07/23 13:09:28;;;;;;;5.53;4.00;;;32.00;46.10;;;;;;2327859;53;20967;-73
2022/07/23 13:11:56;;;;;;;5.25;3.87;;;32.10;45.90;;;;;;2332475;54;21012;-74
2022/07/23 13:14:23;;;;;;;5.78;3.62;;;32.10;45.70;;;;;;2478326;53;21442;-71
2022/07/23 13:16:50;;;;;;;4.15;2.92;;;32.20;45.40;;;;;;2314420;55;20997;-73
2022/07/23 13:19:16;;;;;;;4.15;3.15;;;32.20;45.20;;;;;;2482906;53;21482;-72
2022/07/23 13:21:43;;;;;;;4.20;3.25;;;32.20;45.10;;;;;;2315554;55;21049;-74
2022/07/23 13:24:10;;;;;;;4.35;3.37;;;32.30;45.20;;;;;;2315223;54;21721;-73
2022/07/23 13:26:37;;;;;;;5.50;4.18;;;32.30;45.10;;;;;;2317746;54;21027;-75
2022/07/23 13:29:04;;;;;;;5.75;4.00;;;32.40;45.20;;;;;;2555852;53;20913;-73